createdAt,value
2018-11-29T11:54:58.812Z,18.20
2018-11-29T11:57:32.038Z,17.50
2018-11-29T12:00:05.704Z,17.50
2018-11-29T12:02:39.332Z,19.30
2018-11-29T12:05:26.404Z,25.50
2018-11-29T12:08:00.008Z,30.90
2018-11-29T12:10:33.512Z,34.80
2018-11-29T12:13:08.068Z,37.20
2018-11-29T12:15:42.306Z,38.60
2018-11-29T12:18:17.012Z,38.90
2018-11-29T12:20:50.846Z,38.50
2018-11-29T12:23:23.339Z,37.80
2018-11-29T12:25:57.515Z,36.90
2018-11-29T12:28:31.365Z,35.90
2018-11-29T12:31:05.270Z,34.80
2018-11-29T12:33:39.613Z,33.90
2018-11-29T12:36:13.481Z,33.60
2018-11-29T12:38:47.317Z,35.20
2018-11-29T12:41:21.490Z,37.10
2018-11-29T12:44:01.200Z,38.70
2018-11-29T12:46:34.796Z,39.70
2018-11-29T12:49:08.545Z,40.30
2018-11-29T12:51:42.312Z,40.40
2018-11-29T12:54:16.035Z,40.30
2018-11-29T12:56:50.558Z,39.70
2018-11-29T12:59:24.076Z,38.90
2018-11-29T13:01:57.691Z,37.90
2018-11-29T13:04:32.278Z,36.90
2018-11-29T13:07:06.071Z,35.80
2018-11-29T13:09:39.796Z,34.80
2018-11-29T13:12:12.106Z,33.80
2018-11-29T13:14:46.275Z,32.80
2018-11-29T13:17:19.783Z,31.90
2018-11-29T13:19:53.367Z,31.10
2018-11-29T13:22:26.743Z,30.30
2018-11-29T13:25:00.498Z,29.50
2018-11-29T13:27:34.403Z,28.80
2018-11-29T13:32:49.300Z,27.50
2018-11-29T13:35:28.011Z,26.90
2018-11-29T13:40:31.949Z,25.80
2018-11-29T13:43:05.655Z,25.30
2018-11-29T13:45:39.483Z,24.90
2018-11-29T13:48:15.059Z,24.50
2018-11-29T13:50:48.451Z,24.20
2018-11-29T13:53:22.304Z,24.10
2018-11-29T13:55:56.312Z,24.10
2018-11-29T13:58:29.737Z,24.30
2018-11-29T14:01:03.310Z,24.20
2018-11-29T14:03:36.828Z,24.10
2018-11-29T14:06:09.944Z,23.80
2018-11-29T14:08:43.560Z,23.50
2018-11-29T14:11:16.881Z,23.20
2018-11-29T14:13:49.214Z,22.80
2018-11-29T14:16:23.031Z,22.50
2018-11-29T14:18:56.514Z,22.20
2018-11-29T14:21:30.303Z,21.90
2018-11-29T14:24:03.770Z,21.80
2018-11-29T14:26:37.354Z,22.90
2018-11-29T14:29:11.298Z,25.80
2018-11-29T14:31:44.780Z,29.10
2018-11-29T14:34:18.329Z,31.80
2018-11-29T14:36:51.720Z,33.70
2018-11-29T14:39:25.520Z,35.10
2018-11-29T14:41:59.280Z,36.20
2018-11-29T14:44:33.303Z,36.80
2018-11-29T14:47:06.758Z,36.90
2018-11-29T14:49:39.347Z,36.70
2018-11-29T14:52:13.306Z,36.10
2018-11-29T14:54:46.735Z,35.30
2018-11-29T14:57:21.302Z,34.50
2018-11-29T14:59:54.641Z,33.60
2018-11-29T15:02:28.078Z,32.80
2018-11-29T15:05:07.685Z,34.10
2018-11-29T15:07:38.731Z,36.80
2018-11-29T15:10:13.540Z,39.00
2018-11-29T15:12:47.294Z,40.70
2018-11-29T15:15:20.713Z,41.80
2018-11-29T15:17:56.023Z,42.60
2018-11-29T15:22:59.820Z,43.40
2018-11-29T15:25:33.146Z,43.30
2018-11-29T15:28:06.565Z,42.90
2018-11-29T15:30:39.898Z,42.10
2018-11-29T15:33:13.145Z,41.20
2018-11-29T15:35:46.486Z,40.20
2018-11-29T15:40:56.536Z,37.90
2018-11-29T15:43:31.305Z,36.80
2018-11-29T15:46:04.783Z,35.60
2018-11-29T15:52:22.306Z,33.50
2018-11-29T15:54:55.731Z,32.60
2018-11-29T16:02:34.714Z,30.00
2018-11-29T16:05:09.070Z,29.20
2018-11-29T16:07:42.712Z,28.50
2018-11-29T16:10:21.488Z,27.90
2018-11-29T16:12:55.299Z,27.30
2018-11-29T16:15:28.702Z,26.70
2018-11-29T16:18:00.307Z,26.20
2018-11-29T16:20:39.707Z,25.60
2018-11-29T16:23:14.336Z,25.20
2018-11-29T16:25:48.087Z,24.80
2018-11-29T16:28:21.515Z,24.70
2018-11-29T16:31:02.539Z,26.50
2018-11-29T16:33:42.062Z,30.70
2018-11-29T16:36:15.850Z,34.60
2018-11-29T16:38:49.543Z,37.20
2018-11-29T16:41:23.420Z,38.90
2018-11-29T16:43:56.910Z,40.20
2018-11-29T16:46:30.700Z,41.30
2018-11-29T16:49:04.743Z,42.00
2018-11-29T16:51:38.350Z,42.60
2018-11-29T16:54:11.836Z,42.80
2018-11-29T16:56:44.389Z,42.80
2018-11-29T16:59:17.742Z,42.40
2018-11-29T17:01:51.656Z,41.80
2018-11-29T17:04:25.303Z,40.90
2018-11-29T17:06:58.787Z,39.80
2018-11-29T17:09:31.100Z,38.70
2018-11-29T17:12:04.742Z,37.60
2018-11-29T17:14:38.538Z,36.40
2018-11-29T17:17:12.099Z,35.30
2018-11-29T17:19:45.752Z,34.30
2018-11-29T17:22:19.367Z,33.30
2018-11-29T17:24:52.898Z,32.40
2018-11-29T17:27:25.940Z,31.50
2018-11-29T17:29:59.476Z,30.70
2018-11-29T17:32:33.061Z,29.90
2018-11-29T17:35:06.679Z,29.20
2018-11-29T17:37:40.256Z,29.10
2018-11-29T17:40:22.090Z,30.10
2018-11-29T17:42:57.759Z,31.80
2018-11-29T17:45:35.060Z,33.70
2018-11-29T17:48:14.371Z,35.00
2018-11-29T17:50:49.327Z,36.10
2018-11-29T17:53:22.775Z,37.00
2018-11-29T17:55:57.308Z,37.70
2018-11-29T17:58:33.518Z,38.30
2018-11-29T18:01:07.380Z,38.70
2018-11-29T18:03:42.382Z,38.70
2018-11-29T18:06:16.273Z,38.20
2018-11-29T18:09:30.310Z,37.40
2018-11-29T18:12:04.798Z,36.40
2018-11-29T18:14:38.394Z,35.20
2018-11-29T18:17:12.307Z,34.20
2018-11-29T18:19:45.719Z,33.20
2018-11-29T18:22:19.322Z,32.20
2018-11-29T18:24:52.718Z,31.30
2018-11-29T18:27:26.712Z,30.40
2018-11-29T18:30:00.337Z,29.60
2018-11-29T18:35:25.326Z,28.20
2018-11-29T18:37:58.724Z,27.50
2018-11-29T18:40:32.311Z,26.90
2018-11-29T18:43:06.068Z,26.30
2018-11-29T18:45:39.782Z,26.70
2018-11-29T18:50:46.737Z,32.40
2018-11-29T18:53:20.307Z,35.90
2018-11-29T18:55:53.646Z,38.30
2018-11-29T18:58:27.306Z,39.90
2018-11-29T19:01:00.683Z,41.10
2018-11-29T19:03:35.280Z,41.90
2018-11-29T19:06:08.864Z,42.40
2018-11-29T19:08:42.776Z,42.40
2018-11-29T19:11:14.940Z,42.20
2018-11-29T19:13:48.804Z,41.60
2018-11-29T19:21:27.316Z,38.70
2018-11-29T19:24:00.740Z,37.60
2018-11-29T19:26:39.114Z,36.40
2018-11-29T19:29:10.260Z,35.30
2018-11-29T19:31:44.300Z,34.30
2018-11-29T19:34:17.764Z,33.30
2018-11-29T19:36:50.093Z,32.40
2018-11-29T19:39:23.684Z,31.50
2018-11-29T19:41:57.357Z,30.70
2018-11-29T19:44:30.876Z,29.90
2018-11-29T19:47:05.381Z,29.20
2018-11-29T19:49:38.712Z,28.80
2018-11-29T19:52:12.313Z,28.70
2018-11-29T19:54:46.267Z,28.70
2018-11-29T19:57:20.677Z,28.70
2018-11-29T19:59:54.297Z,28.80
2018-11-29T20:02:27.779Z,28.90
2018-11-29T20:05:01.032Z,28.90
2018-11-29T20:07:34.641Z,28.60
2018-11-29T20:10:13.360Z,28.20
2018-11-29T20:12:48.316Z,27.80
2018-11-29T20:15:25.292Z,27.20
2018-11-29T20:17:58.764Z,26.70
2018-11-29T20:20:32.314Z,26.20
2018-11-29T20:23:06.058Z,25.70
2018-11-29T20:25:39.822Z,25.30
2018-11-29T20:28:13.547Z,24.80
2018-11-29T20:30:46.987Z,24.40
2018-11-29T20:33:20.711Z,24.10
2018-11-29T20:35:54.320Z,23.70
2018-11-29T20:38:27.745Z,23.30
2018-11-29T20:41:01.343Z,23.00
2018-11-29T20:43:34.970Z,22.80
2018-11-29T20:46:08.526Z,22.50
2018-11-29T20:48:41.907Z,22.30
2018-11-29T20:51:15.371Z,22.10
2018-11-29T20:53:48.885Z,22.00
2018-11-29T20:56:21.101Z,21.80
2018-11-29T20:58:54.517Z,21.60
2018-11-29T21:01:28.303Z,21.50
2018-11-29T21:04:01.717Z,21.40
2018-11-29T21:06:35.721Z,21.30
2018-11-29T21:09:13.834Z,21.20
2018-11-29T21:11:47.893Z,21.00
2018-11-29T21:14:21.321Z,21.00
2018-11-29T21:16:54.747Z,20.90
2018-11-29T21:19:28.268Z,20.80
2018-11-29T21:22:01.726Z,20.70
2018-11-29T21:24:35.540Z,20.60
2018-11-29T21:27:09.433Z,20.60
2018-11-29T21:30:32.124Z,20.50
2018-11-29T21:33:06.062Z,20.40
2018-11-29T21:35:39.790Z,20.40
2018-11-29T21:38:25.417Z,20.30
2018-11-29T21:41:07.312Z,20.30
2018-11-29T21:43:41.070Z,20.20
2018-11-29T21:46:14.482Z,20.20
2018-11-29T21:48:48.339Z,20.20
2018-11-29T21:51:22.299Z,20.10
2018-11-29T21:53:55.703Z,20.10
2018-11-29T21:56:29.316Z,20.10
2018-11-29T21:59:03.313Z,20.00
2018-11-29T22:01:36.856Z,20.00
2018-11-29T22:04:09.263Z,20.00
2018-11-29T22:06:43.538Z,20.00
2018-11-29T22:09:16.921Z,19.90
2018-11-29T22:11:51.374Z,19.90
2018-11-29T22:14:24.920Z,19.80
2018-11-29T22:16:58.472Z,19.80
2018-11-29T22:19:32.340Z,19.80
2018-11-29T22:22:05.764Z,19.70
2018-11-29T22:24:39.327Z,19.70
2018-11-29T22:27:13.309Z,19.70
2018-11-29T22:29:47.325Z,19.70
2018-11-29T22:32:20.965Z,19.60
2018-11-29T22:34:54.532Z,19.60
2018-11-29T22:37:28.872Z,19.60
2018-11-29T22:40:01.122Z,19.60
2018-11-29T22:42:34.568Z,19.50
2018-11-29T22:45:09.665Z,19.50
2018-11-29T22:47:43.299Z,19.50
2018-11-29T22:50:16.743Z,19.50
2018-11-29T22:52:50.298Z,19.50
2018-11-29T22:55:23.792Z,19.40
2018-11-29T22:57:57.326Z,19.40
2018-11-29T23:00:41.521Z,19.50
2018-11-29T23:03:15.815Z,19.40
2018-11-29T23:10:54.881Z,19.60
2018-11-29T23:13:28.343Z,19.50
2018-11-29T23:16:02.288Z,19.50
2018-11-29T23:18:35.685Z,19.40
2018-11-29T23:21:09.298Z,19.40
2018-11-29T23:23:43.308Z,19.40
2018-11-29T23:26:16.698Z,19.40
2018-11-29T23:28:50.121Z,19.40
2018-11-29T23:31:23.508Z,19.40
2018-11-29T23:33:56.886Z,19.40
2018-11-29T23:36:30.541Z,19.40
2018-11-29T23:39:04.840Z,19.40
2018-11-29T23:41:37.099Z,19.40
2018-11-29T23:44:10.799Z,19.40
2018-11-29T23:46:44.288Z,19.40
2018-11-29T23:49:18.336Z,19.40
2018-11-29T23:51:52.019Z,19.30
2018-11-29T23:54:25.496Z,19.30
2018-11-29T23:56:58.888Z,19.30
2018-11-29T23:59:31.129Z,19.30
